Arlington, NC

5:45 PM EDT on July 28, 2016 (GMT -0400)
North Oak Ridge Community | | Change Station

Elev 1129 ft 36.21 °N, 80.75 °W | Updated 8 minutes ago

Clear
Clear
92.3 °F
Feels Like 100 °F
N
9.4
Wind Variable Wind from South

Today
High -- | Low -- °F
--% Chance of Precip.
Yesterday
High -- | Low -- °F
Precip. -- in
Pressure 29.91 in
Visibility 10.0 miles
Clouds Clear
Heat Index 100 °F
Dew Point 72 °F
Humidity 52%
Rainfall 0.00 in
Snow Depth Not available.
6:27 AM 8:31 PM
Waning Crescent, 28% visible
METAR KUKF 282115Z AUTO 20011G17KT 150V220 10SM CLR 33/21 A2991 RMK AO2 LTG DSNT N
Pressure 29.91 in
Visibility 10.0 miles
Clouds Clear
Heat Index 100 °F
Dew Point 72 °F
Humidity 52%
Rainfall 0.00 in
Snow Depth Not available.
6:27 AM 8:31 PM
Waning Crescent, 28% visible
METAR KUKF 282115Z AUTO 20011G17KT 150V220 10SM CLR 33/21 A2991 RMK AO2 LTG DSNT N

10-Day Weather Forecast

Almanac

Astronomy

Jul. 28, 2016 Rise Set
Actual Time
Civil Twilight
Nautical Twilight
Astronomical Twilight
Moon
Length of Visible Light
Length of Day
Tomorrow will be .
, % of the Moon is Illuminated

Today's Extremes

State Highs State Lows

Community

WunderPhotos

Upload Photos

1,928,224 photos uploaded!

WunderBlog® & News

Nearby

Air Quality

  Air Quality AQ Index Pollutant
Not available.

Snow Depth

Station Depth Elevation

Earthquake Activity

City Distance Mag. Time & Date
Minimum magnitude displayed is 2.5.

Coastal Water Temperatures

Place Temperature

Stations

Nearby Weather Stations

Station Location Temp. Windchill Dew Point Humidity Wind Precip. Elev Updated Type
                   

Watches & Warnings

There are currently no watches in effect.